Paradise, Pennsylvania
Current Conditions -  °F | °C
As of 3:53 AM on Thursday 23 Oct 2014 (Local Time) from KLNS Reporting Station
Overcast Overcast  
Wind Chill: 51°   Ceiling: 2900
Heat Index: 51°   Visibility: 10mi
Dew Point: 42°   Wind: 14mph
Humidity: 71%   Direction: 340°NNW
Pressure: 29.84"   Gusts: 23mph
Location:  40.01°N, 76.12°W
Report Text: KLNS 230753Z AUTO 34012G20KT 10SM BKN029 BKN037 OVC055 11/06 A2984 RMK AO2 RAE03 SLP104 P0000 T01060056
Loading
Personal Weather Stations






























Interactive Weather Map
Tropical Storm Tracking
New forecast layout! Learn more

10-Day Weather Forecast

Advertisements
Track Severe Weather on mobile